Terminal Aerodrome Forecast
Issued by NWS

Home | Current Version | Previous Version | Text Only | Print | Product List | Glossary On
Versions: 1 2 3 4 5 6 7 8 9 10 11 12 13 14 15 16 17 18 19
000
FTUS43 KDTX 170520
TAFMBS
TAF
KMBS 170520Z 1706/1806 29005KT P6SM SCT035
     FM170900 25004KT P6SM OVC025
     FM171000 24007KT P6SM BKN025
     FM171700 25015G25KT P6SM SCT030 BKN120=

USA.gov is the U.S. government's official web portal to all federal, state and local government web resources and services.